This is the latest recevied weather packets stored in our database for station/object KC9EGS. If no packets are shown the sender has not sent any weather packets the latest 1 day(s).
| Time | Temp. | Humidity | Pressure | Rain* | Wind** | Luminosity | Snow |
|---|---|---|---|---|---|---|---|
| 1778007324 | 5.56° C | 48% | 1004.5 hPa | 0 mm | 0.89 m/s, 271° | - | - |
| 1778006806 | 5.56° C | 48% | 1004.5 hPa | 0 mm | 5.36 m/s, 244° | - | - |
| 1778006724 | 5.56° C | 48% | 1004.5 hPa | 0 mm | 2.24 m/s, 182° | - | - |
| 1778005906 | 5.56° C | 47% | 1004.1 hPa | 0 mm | 3.58 m/s, 359° | - | - |
| 1778005524 | 5.56° C | 49% | 1004 hPa | 0 mm | 2.24 m/s, 288° | - | - |
| 1778005005 | 5.56° C | 44% | 1004 hPa | 0 mm | 4.92 m/s, 254° | - | - |
| 1778004923 | 5.56° C | 44% | 1004 hPa | 0 mm | 3.13 m/s, 247° | - | - |
| 1778004323 | 5.56° C | 45% | 1003.9 hPa | 0 mm | 3.58 m/s, 247° | - | - |
| 1778004105 | 5.56° C | 44% | 1003.9 hPa | 0 mm | 1.34 m/s, 244° | - | - |
| 1778003723 | 6.11° C | 44% | 1003.6 hPa | 0 mm | 3.13 m/s, 251° | - | - |
| 1778003206 | 6.11° C | 46% | 1003.6 hPa | 0 mm | 1.34 m/s, 291° | - | - |
| 1778003123 | 6.11° C | 46% | 1003.6 hPa | 0 mm | 0 m/s | - | - |
| 1778002523 | 5.56° C | 45% | 1003.7 hPa | 0 mm | 2.68 m/s, 277° | - | - |
| 1778002306 | 6.11° C | 44% | 1003.7 hPa | 0 mm | 0.45 m/s, 284° | - | - |
| 1778001924 | 6.11° C | 43% | 1003.5 hPa | 0 mm | 0.45 m/s, 244° | - | - |
| 1778001406 | 5.56° C | 44% | 1003.5 hPa | 0 mm | 0.89 m/s, 253° | - | - |
| 1778001323 | 5.56° C | 43% | 1003.5 hPa | 0 mm | 0 m/s | - | - |
| 1778000723 | 5.56° C | 44% | 1003.5 hPa | 0 mm | 1.34 m/s, 241° | - | - |
| 1778000505 | 5.56° C | 45% | 1003.5 hPa | 0 mm | 2.24 m/s, 253° | - | - |
| 1778000118 | 5.56° C | 46% | 1003.4 hPa | 0 mm | 4.92 m/s, 272° | - | - |
| 1777999522 | 5.56° C | 45% | 1003.4 hPa | 0 mm | 1.34 m/s, 243° | - | - |
| 1777999217 | 5.56° C | 46% | 1003.3 hPa | 0 mm | 0 m/s | - | - |
| 1777998923 | 5.56° C | 46% | 1003.3 hPa | 0 mm | 1.34 m/s, 270° | - | - |
| 1777998325 | 5.56° C | 48% | 1003.1 hPa | 0 mm | 3.13 m/s, 244° | - | - |
| 1777997723 | 5° C | 47% | 1003.1 hPa | 0 mm | 4.92 m/s, 222° | - | - |
* Rain latest hour (hover to see other rain measurements)
** Current wind speed in m/s (hover to see current wind gust speed)